Timeline UpdatesTrip UpdatesNews PostsPvt Posts♥♥Travel TipsAdmin PostsConv PostsFollowed PostsChat RequestsBlog PostsPNR Posts

Disclaimer
Search
 
 
Sat Nov 1, 2014 13:42:46 ISTHomeTrainsΣChainsAtlasPNRForumGalleryNewsFAQTripsMembersLoginFeedback
No Recent News for this Train
Other Trains in the News **new
Latest...
.
Tue Sep 02, 2014 (11:54AM)
⇐ Return Journey: Train# 18478

18477/Kalinga Utkal Express

Time-Table HAS CHANGED.
Sep 02 2014 (11:54AM)
Change Departure Station:
Change Arrival Station:
Post a Train Travel TipPost a Train Travel Tip **new
Post a Comment/Question/Picture/VideoPost a Comment/Question/Picture/Video
Pantry/Catering
✓ Pantry Car Avbl
✓ Catering Avbl
RSA - Rake Sharing
Rake/Coach Composition
Coach Composition:ENG-SLR-GS-GS-A1-B2-B1-S12-S11-S10-PC-S9-S8-S7-S6-S5-S4-S3-S2-S1-GS-SLR. By DJ 132 Entry# 701081
Loco
PURI-NZM: TKD WAP-7 NZM-HW: LDH WDM-3A
News    PNR    Forum    Time-Table    Availability    Fare Chart    Map    Arr/Dep History    Trips    Gallery    ΣChains    X/O    Timeline    
Travel Time: 10h 25m    16 halts    Distance: 578 km    Avg Speed: 55 km/hr
Type: Mail/Express
Zone: ECoR/East Coast
Departs @ 20:55 (Avg 17m late)
Platform# 5
SMTWTFS
Puri/PURI 
Arrives @ 07:20 +1 night (Avg 27m late)
Platform# ???
SMTWTFS
Chakradharpur/CKP 

16 halts. 96 intermediate Stations between Puri and Chakradharpur

Show ALL intermediate Stations  Show Old Time-Table

#TrkCodeStation NameX/OArrivesAvgDepartsAvgHaltPFDay#KmSpeedElevZoneAddress
1%==%PURIPuri (5)»  -20:55+17510.04912mECoRPuri, Odisha
2%==%SILSakhi Gopal (3)  21:15+2121:16+211m--116.44810mECoRPuri, Odisha
3/==/KURKhurda Road Junction (7)X  21:50+1921:55+215m--143.95725mECoRKhordha, Odisha
4/==/BBSBhubaneswar (4)  22:20 22:15+2722:25 22:20+295m4162.84840mECoRBhubaneshwar, Odisha
5%==/CTCCuttack Junction (5)  22:50 22:55+2822:55 23:00+295m1190.78628mECoRCuttack, Odisha
6/==/JJKRJajpur Keonjhar Road (4)  23:51 23:50+3523:52+351 2m--1162.74036mECoRJajpur, Odisha
7/==/BHCBhadrak (4)X  00:58+1901:00+222m--2206.48723mECoRBhadrak, Odisha
8/==/SOROSoroX  01:21 01:20+2701:22+271 2m--2235.47214mSERSoro, Odisha
9/==/BLSBalasore (4)X  01:50+2601:55+265m--2268.87319mSERBalasore, Odisha
10/==/BTSBasta (3)X  02:19 02:18+2902:20+291 2m--2296.87316mSERBasta, Odisha
11/==/JERJaleswar (4)X  02:37 02:36+2202:38+251 2m--2316.38413mSERJaleswar, Odisha
12/==/HIJHijli (2)  03:25 03:24+2903:26+361 2m--2381.05048mSERdist - paschim medinipur, West Bengal
13/==/CKUChakulia (4)  04:47+1804:48+221m--2448.883126mSERChakulia, Jharkhand
14/==/GTSGhatsila (3)X  05:11 05:10+1105:12+141 2m--2479.445103mSEREast Singhbhum, Jharkhand
15/==/TATATatanagar Junction (5)  06:05 06:00+2306:10+275 10m32515.660164mSER91-657-2423026, Jharkhand
16/==/SINISini Junction (3)X  06:37+3006:38 06:39+301 2m--2542.554182mSERNational Highway 33, Jharkhand
17/==/RKSNRajkharsawan Junction (3)  06:54 06:56+3106:55 06:57+331m--2557.852189mSERSaraikela Kharswan District, Jharkhand
18/==/CKPChakradharpur (3)•X  07:20+2707:30+2810m--2577.884235mSERChakradharpur (West Singhbhum), Jharkhand
19/==/GOLGoilkera (2)  07:54+3407:55+351m--2611.655333mSERGoilkera, Jharkhand
20/==/MOUManoharpur  08:25+3308:26+341m--2639.170228mSERManoharpur, Jharkhand
21/==/BZRBisra  08:50 08:48+3608:51 08:49+371m--2664.851224mSERSundargarh, Odisha
22/==/BNDMBondamunda (2)  08:55 08:58+1908:56 08:59+191m--2672.424213mSERRourkela, Odisha
23/--/ROURourkela Junction (5)X  09:15+3409:30+3415m12678.966198mSERRourkela, Odisha
24/==/GPRaj Gangpur (3)  09:57+4009:58+421m12708.774237mSERRaj Ganpur, Odisha
25/==/BMBBamra (3)X  10:26+4410:27+451m--2743.335259mSERBamra PH : 06642-229268, Odisha
26/==/JSGJharsuguda Junction (5)X  11:30+2411:40+2810m--2779.864236mSERJharsuguda, Odisha
27/==/BRJNBrajrajnagarX  11:49 11:51+3011:50 11:53+301 2m--2791.567212mSECRBrajrajnagar, Odisha
28/==/BPHBelpahar (2)X  11:59 12:01+3112:00 12:03+341 2m--2800.483235mSECRBelpahar, Odisha
29/==/RIGRaigarh (3)X  12:36 12:40+3612:41 12:45+355m22851.578220mSECRRaigarh, Chhattisgarh
30/==/KHSKharsia  13:04 13:11+4513:05 13:13+451 2m--2885.471 SECRNational Highway 200, Chhattisgarh
31/==/SKTSakti (4)  13:18 13:26+4713:19 13:28+471 2m--2900.874237mSECRJanjgir-Champa, Chhattisgarh
32/==/BUABaradwar  13:31 13:40+4913:32 13:42+511 2m--2915.752 SECRJanjgir-Champa, Chhattisgarh
33/==/CPHChampa Junction (3)  13:49 14:00+5113:54 14:05+495m22931.259264mSECRNational Highway 200 (07819-245767), Chhattisgarh
34/==/NIANaila  14:04 14:16+5014:05 14:18+501 2m--2942.175273mSECRJanjgir, Chhattisgarh
35/==/AKTAkaltara (4)  14:18 14:30+4914:19 14:32+491 2m--2957.028284mSECRDist. Janjgir Champa, Chhattisgarh
36/==/BSPBilaspur Junction (8)  15:10 15:30+2715:25 15:45+3215m22984.280271mSECRBilaspur, Chhattisgarh
37/==/KGBKargi Road  15:57 16:09+5115:58 16:11+511 2m--21016.356327mSECRBilaspur, Chhattisgarh
38%==%BIGBelgahna  16:18 16:28+5316:19 16:30+541 2m--21032.146327mSECRBilaspur, Chhattisgarh
39%==%PNDPendra Road  17:25 17:40+5517:30 17:45+555m921085.861620mSECRBilaspur district, Chhattisgarh
40%==%APRAnuppur Junction (4)X  18:20 18:35+5818:25 18:40+585m--21136.985487mSECRAnuppur, Madhya Pradesh
41/==/AALAmlaiX  18:35 18:49+1:0218:36 18:51+1:031 2m--21149.658495mSECRAnuppur, Madhya Pradesh
42/==/BUHBurhar  18:46 19:00+1:0318:47 19:02+1:031 2m--21158.335494mSECRBurhar, Madhya Pradesh
43/==/SDLShahdolX  19:25 19:35+5019:30 19:40+505m--21177.866466mSECR, Madhya Pradesh
44/==/BRSBirsinghpur  20:05 20:14+5320:06 20:16+531 2m--21215.254461mSECRPali, Madhya Pradesh
45/==/NRZBNowrozabadX  20:15 20:24+5220:16 20:26+521 2m--21222.452458mSECRNational Highway 78, Madhya Pradesh
46/==/UMRUmaria (3)  20:45 20:52+4820:50 20:57+465m221245.154469mSECRUmaria, Madhya Pradesh
47/==/CHDChandia Road (1)X  21:09 21:18+4321:10 21:20+431 2m121264.125406mSECRNational Highway 78, Madhya Pradesh
48/==/KMZKatni Murwara  22:55+3323:10+4015m--21303.970385mWCRMP 483504 ?, Madhya Pradesh
49/==/DMODamoh (2)X  00:43+3700:45+382m--31413.075365mWCRDamoh, Madhya Pradesh
50/==/PHAPatharia  01:05 01:06+4001:07 01:08+402m--31439.162382mWCRState Highway 14, Madhya Pradesh
51/==/SGOSaugor (2)X  01:57+4502:00+463m--31490.155519mWCRMP 470001Madhya pradesh, Madhya Pradesh
52/==/KYEKhurai (5)XO  02:58+3403:00+352m--31542.923439mWCRKhurai, Madhya Pradesh
53/==/MAKRMalkheri Junction (2)  04:05 03:45+2104:07 03:47+232m--31560.156421mWCRGuna, Madhya Pradesh
54/==/LARLalitpur (3)X  05:09 04:55+2505:10 04:57+281 2m331623.3114373mNCRLalitpur, Uttar Pradesh
55/==/TBTTalbahat (4)X  05:31 05:18+3305:33 05:20+332m331663.265314mNCRKhaniyadhana Station Rd, Madhya Pradesh
56/==/BABBabina (3)X  05:54 05:43+3805:55 05:45+391 2m131688.134285mNCRBabina, Uttar Pradesh
57/==/JHSJhansi Junction (7)  06:35 06:30+2706:43 06:40+328 10m431713.675259mNCRJhansi, Uttar Pradesh
58/==/DAADatia (2)  07:06 07:00+3707:07 07:02+401 2m--31738.676264mNCRDatia, Madhya Pradesh
59/==/DBADabra (3)  07:29 07:26+4507:30 07:28+511 2m131769.079 NCRDabra(District-Gwalior), Madhya Pradesh
60/==/GWLGwalior Junction (4)  08:35 08:00+1:1308:40 08:05+1:145m231811.334214mNCRGwalior, Madhya Pradesh
61/==/MRAMorena (3)  09:08 09:13+4309:09 09:15+441 2m231849.981176mNCRMorena, Madhya Pradesh
62/==/DHODholpur Junction (3)X  09:33 09:35+5009:34 09:37+521 2m131876.746177mNCRDholpur, Rajasthan
63/==/AGCAgra Cantt. (6)X  10:45+4210:53+478m331929.317174mNCRAgra, Uttar Pradesh
64/==/RKMRaja Ki Mandi (4)  11:03 11:07+4611:04 11:09+461 2m131933.369170mNCRAgra, Uttar Pradesh
65/==/MTJMathura Junction (10)X  11:47 11:52+5111:52 11:57+505m231983.064179mNCRMathura, Uttar Pradesh
66/==/FDBFaridabad (4)X  13:30 13:43+4713:31 13:45+501 2m232096.223206mNRold Faridabad, Haryana
67/==/NZMDelhi Hazrat Nizamuddin (7)XOO14:05 14:40+3614:35 15:10+3630m132117.037209mNRNew Delhi 110013, Delhi NCT
68/==/GZBGhaziabad Junction (6)  15:11 15:48+4815:13 15:50+502m132140.445217mNRGhaziabad, Uttar Pradesh
69%==%MTCMeerut City Junction (6)X  15:55 16:53+3916:00 16:56+415 3m132187.637229mNRMeerut, Uttar Pradesh
70%--%MUTMeerut Cantt. (2) new halt!!  17:03+4917:05+492m--32191.972230mNRMeerut, Uttar Pradesh
71%--%MOZMuzaffarnagar (3)  16:52 17:48+4516:53 17:50+471 2m132243.245247mNRMuzaffarNagar, Uttar Pradesh
72%--%DBDDeoband (2)  18:11 18:22+2618:12 18:24+281 2m132267.252258mNRSaharanpur, Uttar Pradesh
73%--/TPZTapri Junction (2)  19:01 18:56+2519:02 18:58+251 2m232294.960274mNRTapri -Saharanpur, Uttar Pradesh
74/==/RKRoorkee (3)X  19:37 19:30+5419:38 19:35+531 5m332326.934264mNRRoorkee - 247667, Uttarakhand
75%--%HWHaridwar Junction (9)  20:30 20:55+22-232371.7-294mNRHaridwar, Uttarakhand
Scroll to Top
Scroll to Bottom